createdAt,value
2023-06-03T00:00:31.877Z,62.10
2023-06-03T00:03:01.293Z,62.00
2023-06-03T00:05:30.750Z,62.00
2023-06-03T00:07:59.916Z,62.00
2023-06-03T00:10:29.209Z,61.90
2023-06-03T00:13:00.016Z,61.80
2023-06-03T00:15:29.225Z,61.80
2023-06-03T00:17:58.738Z,61.80
2023-06-03T00:20:29.585Z,61.70
2023-06-03T00:22:59.921Z,61.70
2023-06-03T00:25:29.145Z,61.60
2023-06-03T00:27:59.783Z,61.60
2023-06-03T00:30:30.311Z,61.50
2023-06-03T00:33:00.039Z,61.60
2023-06-03T00:35:29.386Z,61.50
2023-06-03T00:37:58.700Z,61.50
2023-06-03T00:40:29.299Z,61.40
2023-06-03T00:43:01.306Z,61.40
2023-06-03T00:45:30.596Z,61.40
2023-06-03T00:47:59.849Z,61.30
2023-06-03T00:50:29.268Z,61.30
2023-06-03T00:52:59.426Z,61.30
2023-06-03T00:55:28.773Z,61.20
2023-06-03T00:57:58.331Z,61.20
2023-06-03T01:00:28.990Z,61.20
2023-06-03T01:02:58.546Z,61.20
2023-06-03T01:05:27.900Z,61.20
2023-06-03T01:08:04.098Z,61.10
2023-06-03T01:10:40.683Z,61.00
2023-06-03T01:13:29.000Z,61.10
2023-06-03T01:16:06.667Z,61.00
2023-06-03T01:18:38.609Z,61.00
2023-06-03T01:21:08.768Z,60.90
2023-06-03T01:23:44.277Z,60.90
2023-06-03T01:26:14.127Z,60.90
2023-06-03T01:28:43.328Z,60.80
2023-06-03T01:31:13.340Z,61.00
2023-06-03T01:33:42.994Z,61.20
2023-06-03T01:36:12.261Z,61.20
2023-06-03T01:38:43.289Z,61.10
2023-06-03T01:41:13.105Z,61.00
2023-06-03T01:43:42.476Z,61.10
2023-06-03T01:46:12.465Z,61.00
2023-06-03T01:48:42.133Z,61.00
2023-06-03T01:51:11.328Z,60.90
2023-06-03T01:53:40.787Z,60.90
2023-06-03T01:56:11.958Z,61.00
2023-06-03T01:58:41.928Z,60.80
2023-06-03T02:01:11.154Z,60.60
2023-06-03T02:03:40.554Z,60.60
2023-06-03T02:06:11.528Z,60.50
2023-06-03T02:08:40.849Z,60.50
2023-06-03T02:11:11.467Z,60.50
2023-06-03T02:13:41.017Z,60.40
2023-06-03T02:16:10.415Z,61.20
2023-06-03T02:18:40.497Z,60.30
2023-06-03T02:21:10.068Z,60.40
2023-06-03T02:23:39.401Z,60.30
2023-06-03T02:26:08.613Z,60.30
2023-06-03T02:28:39.366Z,60.20
2023-06-03T02:31:08.631Z,60.20
2023-06-03T02:33:37.919Z,60.20
2023-06-03T02:36:09.353Z,60.20
2023-06-03T02:38:38.581Z,60.10
2023-06-03T02:41:07.799Z,60.10
2023-06-03T02:43:38.433Z,60.10
2023-06-03T02:46:08.234Z,60.00
2023-06-03T02:48:37.666Z,60.00
2023-06-03T02:51:07.134Z,60.00
2023-06-03T02:53:37.873Z,60.00
2023-06-03T02:56:07.756Z,60.00
2023-06-03T02:58:38.494Z,60.00
2023-06-03T03:01:07.845Z,59.90
2023-06-03T03:03:37.726Z,60.00
2023-06-03T03:06:08.381Z,59.90
2023-06-03T03:08:37.830Z,59.90
2023-06-03T03:11:10.425Z,59.80
2023-06-03T03:13:42.236Z,59.80
2023-06-03T03:16:13.065Z,59.70
2023-06-03T03:18:44.277Z,59.80
2023-06-03T03:21:15.270Z,59.70
2023-06-03T03:23:45.493Z,59.70
2023-06-03T03:26:16.422Z,59.70
2023-06-03T03:28:49.704Z,59.70
2023-06-03T03:31:19.946Z,59.70
2023-06-03T03:33:51.259Z,59.70
2023-06-03T03:36:24.122Z,59.70
2023-06-03T03:39:04.397Z,59.70
2023-06-03T03:41:37.308Z,59.60
2023-06-03T03:44:08.095Z,59.60
2023-06-03T03:46:37.734Z,59.70
2023-06-03T03:49:07.126Z,59.60
2023-06-03T03:51:37.670Z,59.70
2023-06-03T03:54:07.535Z,59.60
2023-06-03T03:56:37.214Z,59.60
2023-06-03T03:59:09.525Z,59.60
2023-06-03T04:01:42.391Z,59.60
2023-06-03T04:04:37.468Z,59.70
2023-06-03T04:07:07.281Z,59.60
2023-06-03T04:09:36.492Z,59.60
2023-06-03T04:12:10.113Z,59.70
2023-06-03T04:14:51.661Z,59.70
2023-06-03T04:17:27.048Z,59.60
2023-06-03T04:19:58.581Z,59.60
2023-06-03T04:22:30.931Z,59.60
2023-06-03T04:25:01.308Z,59.60
2023-06-03T04:27:37.714Z,59.60
2023-06-03T04:30:10.569Z,59.60
2023-06-03T04:32:40.446Z,59.60
2023-06-03T04:35:10.280Z,59.60
2023-06-03T04:37:43.355Z,59.60
2023-06-03T04:40:16.367Z,59.60
2023-06-03T04:42:49.202Z,59.60
2023-06-03T04:45:22.578Z,59.60
2023-06-03T04:47:54.022Z,59.60
2023-06-03T04:50:27.022Z,59.60
2023-06-03T04:52:57.731Z,59.80
2023-06-03T04:55:27.069Z,59.80
2023-06-03T04:57:57.157Z,59.80
2023-06-03T05:00:30.565Z,59.80
2023-06-03T05:03:10.350Z,59.80
2023-06-03T05:05:44.771Z,59.80
2023-06-03T05:08:16.849Z,60.00
2023-06-03T05:10:46.518Z,60.00
2023-06-03T05:13:15.894Z,60.20
2023-06-03T05:15:46.902Z,60.20
2023-06-03T05:18:16.104Z,60.30
2023-06-03T05:20:46.265Z,60.10
2023-06-03T05:23:17.174Z,60.00
2023-06-03T05:25:46.645Z,60.00
2023-06-03T05:28:16.961Z,60.10
2023-06-03T05:30:47.649Z,60.00
2023-06-03T05:33:28.705Z,60.20
2023-06-03T05:36:03.618Z,60.10
2023-06-03T05:38:33.014Z,60.20
2023-06-03T05:41:05.712Z,60.30
2023-06-03T05:43:35.623Z,60.40
2023-06-03T05:46:07.530Z,60.50
2023-06-03T05:48:38.233Z,60.60
2023-06-03T05:51:09.075Z,60.70
2023-06-03T05:53:45.326Z,60.70
2023-06-03T05:56:18.058Z,60.80
2023-06-03T05:58:47.570Z,60.80
2023-06-03T06:01:19.402Z,60.90
2023-06-03T06:03:49.233Z,61.00
2023-06-03T06:06:18.734Z,61.00
2023-06-03T06:08:47.943Z,61.00
2023-06-03T06:11:17.954Z,61.10
2023-06-03T06:13:47.433Z,61.10
2023-06-03T06:16:18.898Z,61.10
2023-06-03T06:18:48.260Z,61.10
2023-06-03T06:21:18.216Z,61.10
2023-06-03T06:23:48.822Z,61.20
2023-06-03T06:26:18.950Z,61.10
2023-06-03T06:28:48.954Z,61.10
2023-06-03T06:31:22.679Z,61.10
2023-06-03T06:33:55.721Z,61.10
2023-06-03T06:36:41.313Z,61.10
2023-06-03T06:39:47.305Z,61.10
2023-06-03T06:42:31.455Z,61.10
2023-06-03T06:45:12.131Z,61.10
2023-06-03T06:47:51.678Z,61.00
2023-06-03T06:50:36.755Z,61.10
2023-06-03T06:53:06.465Z,61.30
2023-06-03T06:55:49.976Z,61.40
2023-06-03T06:58:23.803Z,61.30
2023-06-03T07:00:53.992Z,61.30
2023-06-03T07:03:25.425Z,61.60
2023-06-03T07:05:55.340Z,61.40
2023-06-03T07:08:28.603Z,61.60
2023-06-03T07:11:03.161Z,61.90
2023-06-03T07:13:35.737Z,62.60
2023-06-03T07:16:05.565Z,61.50
2023-06-03T07:18:36.595Z,61.60
2023-06-03T07:21:06.195Z,61.60
2023-06-03T07:23:37.121Z,61.70
2023-06-03T07:26:07.565Z,61.70
2023-06-03T07:28:38.811Z,62.50
2023-06-03T07:31:15.161Z,61.80
2023-06-03T07:33:52.815Z,61.80
2023-06-03T07:36:59.821Z,61.70
2023-06-03T07:39:38.895Z,61.80
2023-06-03T07:42:17.211Z,61.70
2023-06-03T07:44:51.802Z,61.70
2023-06-03T07:47:21.740Z,62.00
2023-06-03T07:49:52.429Z,62.30
2023-06-03T07:52:23.951Z,62.40
2023-06-03T07:54:53.224Z,62.30
2023-06-03T07:57:22.427Z,62.20
2023-06-03T07:59:54.525Z,62.20
2023-06-03T08:02:24.427Z,62.20
2023-06-03T08:05:01.635Z,62.20
2023-06-03T08:07:31.082Z,62.30
2023-06-03T08:10:00.943Z,62.30
2023-06-03T08:12:35.703Z,62.40
2023-06-03T08:15:05.655Z,62.40
2023-06-03T08:17:42.312Z,62.40
2023-06-03T08:20:13.631Z,62.60
2023-06-03T08:22:44.979Z,62.50
2023-06-03T08:25:18.258Z,62.60
2023-06-03T08:27:49.487Z,62.60
2023-06-03T08:30:19.322Z,62.60
2023-06-03T08:32:51.287Z,62.80
2023-06-03T08:35:23.499Z,62.80
2023-06-03T08:37:52.979Z,62.80
2023-06-03T08:40:26.557Z,62.90
2023-06-03T08:43:02.813Z,62.90
2023-06-03T08:45:38.424Z,63.10
2023-06-03T08:48:17.673Z,63.20
2023-06-03T08:50:51.655Z,63.30
2023-06-03T08:53:22.166Z,63.50
2023-06-03T08:55:54.806Z,63.40
2023-06-03T08:58:28.880Z,63.50
2023-06-03T09:01:01.948Z,63.60
2023-06-03T09:03:33.994Z,63.60
2023-06-03T09:06:06.370Z,63.70
2023-06-03T09:08:38.695Z,63.70
2023-06-03T09:11:09.859Z,63.80
2023-06-03T09:13:39.462Z,63.90
2023-06-03T09:16:10.496Z,63.90
2023-06-03T09:18:40.731Z,64.10
2023-06-03T09:21:12.966Z,64.10
2023-06-03T09:23:42.452Z,64.30
2023-06-03T09:26:11.761Z,64.10
2023-06-03T09:28:41.140Z,64.00
2023-06-03T09:31:10.660Z,63.90
2023-06-03T09:33:40.172Z,64.00
2023-06-03T09:36:13.222Z,63.80
2023-06-03T09:38:52.745Z,62.80
2023-06-03T09:41:23.509Z,63.00
2023-06-03T09:43:56.905Z,63.30
2023-06-03T09:46:27.773Z,62.00
2023-06-03T09:49:09.068Z,62.00
2023-06-03T09:51:47.335Z,62.70
2023-06-03T09:54:17.826Z,63.10
2023-06-03T09:56:48.389Z,63.60
2023-06-03T09:59:19.523Z,62.90
2023-06-03T10:01:50.228Z,62.70
2023-06-03T10:04:22.255Z,62.80
2023-06-03T10:07:09.819Z,63.20
2023-06-03T10:09:39.403Z,63.70
2023-06-03T10:12:11.942Z,63.90
2023-06-03T10:14:47.583Z,64.10
2023-06-03T10:17:18.750Z,64.40
2023-06-03T10:19:48.864Z,64.20
2023-06-03T10:22:20.573Z,64.30
2023-06-03T10:24:51.348Z,64.10
2023-06-03T10:27:20.811Z,64.20
2023-06-03T10:29:54.014Z,64.60
2023-06-03T10:32:25.325Z,63.90
2023-06-03T10:34:55.773Z,62.80
2023-06-03T10:37:27.407Z,63.00
2023-06-03T10:39:57.994Z,63.80
2023-06-03T10:42:27.874Z,64.20
2023-06-03T10:44:57.190Z,63.40
2023-06-03T10:47:30.043Z,63.60
2023-06-03T10:50:05.025Z,63.70
2023-06-03T10:53:07.241Z,63.50
2023-06-03T10:55:45.361Z,63.90
2023-06-03T10:58:21.968Z,64.30
2023-06-03T11:00:59.384Z,64.30
2023-06-03T11:03:29.889Z,64.70
2023-06-03T11:06:32.459Z,64.90
2023-06-03T11:09:06.810Z,65.20
2023-06-03T11:12:04.625Z,65.30
2023-06-03T11:14:56.167Z,65.40
2023-06-03T11:17:26.441Z,65.30
2023-06-03T11:19:58.280Z,65.00
2023-06-03T11:22:48.263Z,65.20
2023-06-03T11:25:41.989Z,65.10
2023-06-03T11:28:38.187Z,64.90
2023-06-03T11:31:08.951Z,64.50
2023-06-03T11:33:38.570Z,64.50
2023-06-03T11:36:56.436Z,64.40
2023-06-03T11:39:26.254Z,64.40
2023-06-03T11:42:20.718Z,64.60
2023-06-03T11:44:49.969Z,64.90
2023-06-03T11:47:22.758Z,65.40
2023-06-03T11:49:52.169Z,65.50
2023-06-03T11:52:21.576Z,65.60
2023-06-03T11:54:50.913Z,65.80
2023-06-03T11:57:30.868Z,65.70
2023-06-03T12:00:00.766Z,66.50
2023-06-03T12:02:39.461Z,65.60
2023-06-03T12:05:09.859Z,65.50
2023-06-03T12:07:39.147Z,65.50
2023-06-03T12:10:09.033Z,65.70
2023-06-03T12:12:52.141Z,65.60
2023-06-03T12:15:21.728Z,65.70
2023-06-03T12:17:51.663Z,65.90
2023-06-03T12:20:27.594Z,65.70
2023-06-03T12:23:01.874Z,65.80
2023-06-03T12:25:32.484Z,66.70
2023-06-03T12:28:24.534Z,66.10
2023-06-03T12:30:54.933Z,66.50
2023-06-03T12:33:26.134Z,66.60
2023-06-03T12:35:56.191Z,67.10
2023-06-03T12:38:25.780Z,66.80
2023-06-03T12:41:09.881Z,66.70
2023-06-03T12:43:40.593Z,66.60
2023-06-03T12:46:19.061Z,66.60
2023-06-03T12:48:48.663Z,66.70
2023-06-03T12:51:25.366Z,66.50
2023-06-03T12:53:58.144Z,67.00
2023-06-03T12:56:28.120Z,67.20
2023-06-03T12:59:02.097Z,67.20
2023-06-03T13:01:33.710Z,67.00
2023-06-03T13:04:03.416Z,67.10
2023-06-03T13:06:33.029Z,67.20
2023-06-03T13:09:02.219Z,67.50
2023-06-03T13:11:31.618Z,67.40
2023-06-03T13:14:02.450Z,67.40
2023-06-03T13:16:31.719Z,67.10
2023-06-03T13:19:01.337Z,66.90
2023-06-03T13:21:33.983Z,66.90
2023-06-03T13:24:05.585Z,67.10
2023-06-03T13:26:34.983Z,67.10
2023-06-03T13:29:05.932Z,67.20
2023-06-03T13:31:35.209Z,67.20
2023-06-03T13:34:04.719Z,67.20
2023-06-03T13:36:34.004Z,67.00
2023-06-03T13:39:03.479Z,67.00
2023-06-03T13:41:32.725Z,66.90
2023-06-03T13:44:02.416Z,66.90
2023-06-03T13:46:33.204Z,66.70
2023-06-03T13:49:02.522Z,66.70
2023-06-03T13:51:33.195Z,66.90
2023-06-03T13:54:02.612Z,67.20
2023-06-03T13:56:31.792Z,67.30
2023-06-03T13:59:01.207Z,67.40
2023-06-03T14:01:30.972Z,67.60
2023-06-03T14:04:01.704Z,67.70
2023-06-03T14:06:31.337Z,67.90
2023-06-03T14:09:02.504Z,67.60
2023-06-03T14:11:31.731Z,67.10
2023-06-03T14:14:01.579Z,66.90
2023-06-03T14:16:31.086Z,66.60
2023-06-03T14:19:02.051Z,66.70
2023-06-03T14:21:31.362Z,66.50
2023-06-03T14:24:00.894Z,66.50
2023-06-03T14:26:38.374Z,66.50
2023-06-03T14:29:10.857Z,66.50
2023-06-03T14:31:40.456Z,66.30
2023-06-03T14:34:11.791Z,66.00
2023-06-03T14:36:41.133Z,65.80
2023-06-03T14:39:10.370Z,65.80
2023-06-03T14:41:40.460Z,65.70
2023-06-03T14:44:09.696Z,65.90
2023-06-03T14:46:39.009Z,65.80
2023-06-03T14:49:08.377Z,65.80
2023-06-03T14:51:38.941Z,65.80
2023-06-03T14:54:08.698Z,65.80
2023-06-03T14:56:38.052Z,65.70
2023-06-03T14:59:07.344Z,65.70
2023-06-03T15:01:36.857Z,65.60
2023-06-03T15:04:06.284Z,65.40
2023-06-03T15:06:35.827Z,65.20
2023-06-03T15:09:06.675Z,65.00
2023-06-03T15:11:35.990Z,65.00
2023-06-03T15:14:05.259Z,64.70
2023-06-03T15:16:34.532Z,64.60
2023-06-03T15:19:03.778Z,64.50
2023-06-03T15:21:33.160Z,64.50
2023-06-03T15:24:03.420Z,64.50
2023-06-03T15:26:34.082Z,64.60
2023-06-03T15:29:03.710Z,64.80
2023-06-03T15:31:33.129Z,64.90
2023-06-03T15:34:02.458Z,65.00
2023-06-03T15:36:31.743Z,65.00
2023-06-03T15:39:00.929Z,65.30
2023-06-03T15:41:30.363Z,65.30
2023-06-03T15:44:01.029Z,65.30
2023-06-03T15:46:30.374Z,65.40
2023-06-03T15:48:59.665Z,65.40
2023-06-03T15:51:28.855Z,65.50
2023-06-03T15:53:58.188Z,65.70
2023-06-03T15:56:27.388Z,65.80
2023-06-03T15:58:56.688Z,65.90
2023-06-03T16:01:27.462Z,66.00
2023-06-03T16:03:57.239Z,66.10
2023-06-03T16:06:26.572Z,66.00
2023-06-03T16:08:55.752Z,66.10
2023-06-03T16:11:25.452Z,66.10
2023-06-03T16:13:54.685Z,66.30
2023-06-03T16:16:30.074Z,66.40
2023-06-03T16:18:59.399Z,66.50
2023-06-03T16:21:28.587Z,66.30
2023-06-03T16:23:59.918Z,65.70
2023-06-03T16:26:29.563Z,65.90
2023-06-03T16:28:58.763Z,66.20
2023-06-03T16:31:29.505Z,66.30
2023-06-03T16:34:00.690Z,66.20
2023-06-03T16:36:30.047Z,66.10
2023-06-03T16:38:59.364Z,66.40
2023-06-03T16:41:29.827Z,66.30
2023-06-03T16:43:59.154Z,66.30
2023-06-03T16:46:30.078Z,66.40
2023-06-03T16:49:00.681Z,66.30
2023-06-03T16:51:29.917Z,66.30
2023-06-03T16:53:59.272Z,66.30
2023-06-03T16:56:28.444Z,66.30
2023-06-03T16:58:57.736Z,66.20
2023-06-03T17:01:28.384Z,67.00
2023-06-03T17:03:59.649Z,66.30
2023-06-03T17:06:28.955Z,66.30
2023-06-03T17:09:08.780Z,66.30
2023-06-03T17:11:42.289Z,66.30
2023-06-03T17:14:11.484Z,66.30
2023-06-03T17:16:43.912Z,66.30
2023-06-03T17:19:13.317Z,66.30
2023-06-03T17:21:43.867Z,66.30
2023-06-03T17:24:13.160Z,66.30
2023-06-03T17:26:42.328Z,66.30
2023-06-03T17:29:11.533Z,66.30
2023-06-03T17:31:42.205Z,66.30
2023-06-03T17:34:11.515Z,66.30
2023-06-03T17:36:40.682Z,66.30
2023-06-03T17:39:09.895Z,66.30
2023-06-03T17:41:39.608Z,66.20
2023-06-03T17:44:08.926Z,66.20
2023-06-03T17:46:38.227Z,66.20
2023-06-03T17:49:09.040Z,66.10
2023-06-03T17:51:38.402Z,66.10
2023-06-03T17:54:07.892Z,65.90
2023-06-03T17:56:37.131Z,65.90
2023-06-03T17:59:18.239Z,65.90
2023-06-03T18:01:53.899Z,65.90
2023-06-03T18:04:26.490Z,65.90
2023-06-03T18:06:56.794Z,65.90
2023-06-03T18:09:26.018Z,65.80
2023-06-03T18:11:55.344Z,65.70
2023-06-03T18:14:24.522Z,65.60
2023-06-03T18:16:54.576Z,65.60
2023-06-03T18:19:25.236Z,65.50
2023-06-03T18:21:54.487Z,65.50
2023-06-03T18:24:23.765Z,65.50
2023-06-03T18:26:52.961Z,65.50
2023-06-03T18:29:22.306Z,65.40
2023-06-03T18:31:51.662Z,65.40
2023-06-03T18:34:22.579Z,65.40
2023-06-03T18:36:58.328Z,65.30
2023-06-03T18:39:29.516Z,65.20
2023-06-03T18:41:58.763Z,65.30
2023-06-03T18:44:28.002Z,65.20
2023-06-03T18:46:57.125Z,65.10
2023-06-03T18:49:26.313Z,65.00
2023-06-03T18:51:57.045Z,65.00
2023-06-03T18:54:26.377Z,65.10
2023-06-03T18:56:56.212Z,65.00
2023-06-03T18:59:25.408Z,65.10
2023-06-03T19:01:55.193Z,65.00
2023-06-03T19:04:24.565Z,65.00
2023-06-03T19:06:53.787Z,65.00
2023-06-03T19:09:24.448Z,65.00
2023-06-03T19:11:55.082Z,65.00
2023-06-03T19:14:24.335Z,65.00
2023-06-03T19:16:53.538Z,65.00
2023-06-03T19:19:22.826Z,64.90
2023-06-03T19:21:52.120Z,65.70
2023-06-03T19:24:21.507Z,64.80
2023-06-03T19:26:52.160Z,64.80
2023-06-03T19:29:21.378Z,64.80
2023-06-03T19:31:50.733Z,64.70
2023-06-03T19:34:28.939Z,64.70
2023-06-03T19:36:59.192Z,64.70
2023-06-03T19:39:28.363Z,64.70
2023-06-03T19:41:58.997Z,64.60
2023-06-03T19:44:28.298Z,64.70
2023-06-03T19:46:57.552Z,64.60
2023-06-03T19:49:27.711Z,64.70
2023-06-03T19:51:56.904Z,64.60
2023-06-03T19:54:26.110Z,64.60
2023-06-03T19:56:55.310Z,64.50
2023-06-03T19:59:25.903Z,64.60
2023-06-03T20:01:55.257Z,64.50
2023-06-03T20:04:25.465Z,64.50
2023-06-03T20:06:54.677Z,64.50
2023-06-03T20:09:24.126Z,64.50
2023-06-03T20:11:53.366Z,64.50
2023-06-03T20:14:22.633Z,65.20
2023-06-03T20:16:54.947Z,64.40
2023-06-03T20:19:24.174Z,64.50
2023-06-03T20:21:53.356Z,64.50
2023-06-03T20:24:22.971Z,64.40
2023-06-03T20:26:52.179Z,64.50
2023-06-03T20:29:21.434Z,64.40
2023-06-03T20:31:50.756Z,64.30
2023-06-03T20:34:22.250Z,64.30
2023-06-03T20:36:51.624Z,64.30
2023-06-03T20:39:20.847Z,64.30
2023-06-03T20:41:50.061Z,64.30
2023-06-03T20:44:19.359Z,64.30
2023-06-03T20:46:48.607Z,64.30
2023-06-03T20:49:17.879Z,64.30
2023-06-03T20:51:48.490Z,64.30
2023-06-03T20:54:17.810Z,64.30
2023-06-03T20:56:47.083Z,64.30
2023-06-03T20:59:16.276Z,64.30
2023-06-03T21:01:45.486Z,64.20
2023-06-03T21:04:14.772Z,64.20
2023-06-03T21:06:43.978Z,64.10
2023-06-03T21:09:14.631Z,64.20
2023-06-03T21:11:44.962Z,64.20
2023-06-03T21:14:14.479Z,64.10
2023-06-03T21:16:56.710Z,64.10
2023-06-03T21:19:33.599Z,64.10
2023-06-03T21:22:02.946Z,64.20
2023-06-03T21:24:33.598Z,64.10
2023-06-03T21:27:02.844Z,64.10
2023-06-03T21:29:32.033Z,64.10
2023-06-03T21:32:01.820Z,64.10
2023-06-03T21:34:31.272Z,64.00
2023-06-03T21:37:00.522Z,64.00
2023-06-03T21:39:29.736Z,64.00
2023-06-03T21:42:00.882Z,63.90
2023-06-03T21:44:30.259Z,64.00
2023-06-03T21:46:59.489Z,64.00
2023-06-03T21:49:29.805Z,63.90
2023-06-03T21:52:01.224Z,63.90
2023-06-03T21:54:30.459Z,63.80
2023-06-03T21:57:01.136Z,63.90
2023-06-03T21:59:31.415Z,63.90
2023-06-03T22:02:05.318Z,63.90
2023-06-03T22:04:40.101Z,63.80
2023-06-03T22:07:09.524Z,63.90
2023-06-03T22:09:38.681Z,63.80
2023-06-03T22:12:10.345Z,63.80
2023-06-03T22:14:39.589Z,63.80
2023-06-03T22:17:08.873Z,63.70
2023-06-03T22:19:38.110Z,63.80
2023-06-03T22:22:08.018Z,63.70
2023-06-03T22:24:37.305Z,63.60
2023-06-03T22:27:07.436Z,64.50
2023-06-03T22:29:41.904Z,63.60
2023-06-03T22:32:12.420Z,63.60
2023-06-03T22:34:41.687Z,63.60
2023-06-03T22:37:10.874Z,63.60
2023-06-03T22:39:40.129Z,63.60
2023-06-03T22:42:10.079Z,63.50
2023-06-03T22:44:40.814Z,63.60
2023-06-03T22:47:10.136Z,63.60
2023-06-03T22:49:39.277Z,63.60
2023-06-03T22:52:08.807Z,63.60
2023-06-03T22:54:38.202Z,63.60
2023-06-03T22:57:08.105Z,63.50
2023-06-03T22:59:37.316Z,63.50
2023-06-03T23:02:08.505Z,63.50
2023-06-03T23:04:47.022Z,63.50
2023-06-03T23:07:18.455Z,63.50
2023-06-03T23:09:47.651Z,63.50
2023-06-03T23:12:17.042Z,63.50
2023-06-03T23:14:46.281Z,63.40
2023-06-03T23:17:16.919Z,63.30
2023-06-03T23:19:46.761Z,63.30
2023-06-03T23:22:16.035Z,63.40
2023-06-03T23:24:45.195Z,63.40
2023-06-03T23:27:14.385Z,63.30
2023-06-03T23:29:43.624Z,63.20
2023-06-03T23:32:12.846Z,63.20
2023-06-03T23:34:43.530Z,63.20
2023-06-03T23:37:12.826Z,63.20
2023-06-03T23:39:41.958Z,63.20
2023-06-03T23:42:11.355Z,63.10
2023-06-03T23:44:40.638Z,63.10
2023-06-03T23:47:10.253Z,63.10
2023-06-03T23:49:39.857Z,63.00
2023-06-03T23:52:11.537Z,63.00
2023-06-03T23:54:41.891Z,63.00
2023-06-03T23:57:11.071Z,63.10
2023-06-03T23:59:40.338Z,63.00
